createdAt,value
2019-06-20T00:00:58.175Z,18.90
2019-06-20T00:03:26.172Z,19.00
2019-06-20T00:05:54.328Z,19.00
2019-06-20T00:08:22.577Z,19.00
2019-06-20T00:10:50.554Z,19.00
2019-06-20T00:13:18.577Z,19.00
2019-06-20T00:15:46.482Z,19.00
2019-06-20T00:18:14.878Z,18.90
2019-06-20T00:20:42.831Z,18.80
2019-06-20T00:23:10.886Z,18.80
2019-06-20T00:25:38.922Z,18.90
2019-06-20T00:28:06.836Z,18.80
2019-06-20T00:30:34.752Z,18.80
2019-06-20T00:33:02.854Z,18.80
2019-06-20T00:35:31.131Z,18.80
2019-06-20T00:37:59.142Z,18.70
2019-06-20T00:40:27.276Z,18.70
2019-06-20T00:42:55.179Z,18.80
2019-06-20T00:45:23.801Z,18.80
2019-06-20T00:47:51.927Z,18.80
2019-06-20T00:50:20.007Z,18.80
2019-06-20T00:52:47.905Z,18.90
2019-06-20T00:55:16.032Z,18.80
2019-06-20T00:57:44.050Z,19.00
2019-06-20T01:00:12.682Z,19.00
2019-06-20T01:02:40.703Z,19.00
2019-06-20T01:05:09.019Z,18.90
2019-06-20T01:07:36.930Z,18.90
2019-06-20T01:10:05.697Z,18.90
2019-06-20T01:12:33.674Z,18.90
2019-06-20T01:15:01.617Z,19.00
2019-06-20T01:17:29.546Z,19.00
2019-06-20T01:19:58.378Z,19.00
2019-06-20T01:22:26.575Z,19.00
2019-06-20T01:24:54.735Z,19.00
2019-06-20T01:27:22.680Z,19.10
2019-06-20T01:29:50.668Z,19.10
2019-06-20T01:32:18.685Z,19.20
2019-06-20T01:34:46.599Z,19.20
2019-06-20T01:37:14.549Z,19.20
2019-06-20T01:39:42.564Z,19.20
2019-06-20T01:42:10.786Z,19.20
2019-06-20T01:44:38.698Z,19.20
2019-06-20T01:47:06.736Z,19.10
2019-06-20T01:49:34.631Z,19.10
2019-06-20T01:52:02.735Z,18.90
2019-06-20T01:54:30.750Z,18.90
2019-06-20T01:56:58.670Z,18.90
2019-06-20T01:59:26.583Z,18.90
2019-06-20T02:01:54.495Z,18.80
2019-06-20T02:04:22.406Z,18.80
2019-06-20T02:06:57.393Z,18.70
2019-06-20T02:09:26.555Z,18.70
2019-06-20T02:11:54.689Z,18.80
2019-06-20T02:14:22.807Z,18.80
2019-06-20T02:16:50.830Z,18.80
2019-06-20T02:19:18.974Z,19.00
2019-06-20T02:21:46.983Z,19.10
2019-06-20T02:24:15.187Z,19.20
2019-06-20T02:26:43.118Z,19.20
2019-06-20T02:29:11.103Z,19.10
2019-06-20T02:31:39.323Z,18.90
2019-06-20T02:34:07.307Z,19.10
2019-06-20T02:36:35.186Z,19.00
2019-06-20T02:39:05.360Z,18.90
2019-06-20T02:41:33.735Z,19.00
2019-06-20T02:44:01.755Z,18.90
2019-06-20T02:46:29.735Z,18.90
2019-06-20T02:48:57.747Z,18.90
2019-06-20T02:51:25.835Z,18.90
2019-06-20T02:53:53.866Z,18.90
2019-06-20T02:56:21.750Z,18.90
2019-06-20T02:58:49.759Z,18.70
2019-06-20T03:01:18.613Z,18.70
2019-06-20T03:03:46.612Z,18.60
2019-06-20T03:06:14.731Z,18.70
2019-06-20T03:08:42.854Z,18.60
2019-06-20T03:11:10.995Z,18.60
2019-06-20T03:13:39.067Z,18.50
2019-06-20T03:16:06.966Z,18.50
2019-06-20T03:18:34.880Z,18.60
2019-06-20T03:21:02.969Z,18.50
2019-06-20T03:23:30.878Z,18.50
2019-06-20T03:25:58.923Z,18.50
2019-06-20T03:28:26.925Z,18.60
2019-06-20T03:30:55.164Z,18.70
2019-06-20T03:33:23.568Z,18.60
2019-06-20T03:35:51.773Z,18.60
2019-06-20T03:38:19.762Z,18.60
2019-06-20T03:40:47.860Z,18.60
2019-06-20T03:43:15.781Z,18.70
2019-06-20T03:45:44.431Z,18.60
2019-06-20T03:48:12.438Z,18.70
2019-06-20T03:50:40.855Z,18.70
2019-06-20T03:53:08.951Z,18.70
2019-06-20T03:55:36.855Z,18.70
2019-06-20T03:58:05.213Z,18.60
2019-06-20T04:00:34.271Z,18.60
2019-06-20T04:03:04.335Z,18.60
2019-06-20T04:05:32.587Z,18.50
2019-06-20T04:08:00.626Z,18.50
2019-06-20T04:10:28.742Z,18.60
2019-06-20T04:12:56.645Z,18.80
2019-06-20T04:15:24.765Z,18.70
2019-06-20T04:17:53.439Z,18.60
2019-06-20T04:20:21.841Z,18.50
2019-06-20T04:22:50.266Z,18.70
2019-06-20T04:25:18.515Z,18.70
2019-06-20T04:27:46.696Z,18.80
2019-06-20T04:30:14.898Z,18.80
2019-06-20T04:32:43.294Z,18.80
2019-06-20T04:35:11.550Z,18.70
2019-06-20T04:37:46.386Z,18.70
2019-06-20T04:40:14.027Z,18.60
2019-06-20T04:42:41.180Z,18.70
2019-06-20T04:45:35.850Z,18.80
2019-06-20T04:48:03.306Z,18.70
2019-06-20T04:50:31.490Z,18.70
2019-06-20T04:52:59.870Z,18.80
2019-06-20T04:55:28.117Z,18.90
2019-06-20T04:57:56.513Z,18.90
2019-06-20T05:00:24.628Z,19.00
2019-06-20T05:02:53.198Z,19.00
2019-06-20T05:05:21.456Z,19.00
2019-06-20T05:07:49.943Z,18.80
2019-06-20T05:10:18.190Z,18.70
2019-06-20T05:12:46.427Z,18.80
2019-06-20T05:15:15.014Z,18.90
2019-06-20T05:17:42.889Z,18.90
2019-06-20T05:20:11.492Z,18.70
2019-06-20T05:22:39.906Z,18.80
2019-06-20T05:25:09.287Z,18.80
2019-06-20T05:27:37.867Z,18.90
2019-06-20T05:30:07.907Z,18.90
2019-06-20T05:32:36.217Z,19.00
2019-06-20T05:35:05.315Z,19.00
2019-06-20T05:37:33.554Z,18.80
2019-06-20T05:40:01.709Z,18.80
2019-06-20T05:42:29.948Z,18.90
2019-06-20T05:44:58.089Z,19.00
2019-06-20T05:47:26.230Z,18.90
2019-06-20T05:49:55.009Z,18.70
2019-06-20T05:52:23.212Z,18.80
2019-06-20T05:54:51.115Z,19.00
2019-06-20T05:57:19.702Z,18.90
2019-06-20T05:59:48.222Z,18.90
2019-06-20T06:02:16.812Z,19.10
2019-06-20T06:04:44.785Z,19.30
2019-06-20T06:07:14.229Z,19.30
2019-06-20T06:09:42.841Z,19.20
2019-06-20T06:12:11.098Z,19.10
2019-06-20T06:14:39.258Z,19.00
2019-06-20T06:17:07.911Z,19.00
2019-06-20T06:19:36.442Z,19.10
2019-06-20T06:22:04.800Z,19.30
2019-06-20T06:24:32.959Z,19.30
2019-06-20T06:27:01.514Z,19.40
2019-06-20T06:29:29.491Z,19.30
2019-06-20T06:31:57.698Z,19.40
2019-06-20T06:34:25.702Z,19.50
2019-06-20T06:36:54.319Z,19.60
2019-06-20T06:39:22.793Z,19.70
2019-06-20T06:41:50.990Z,19.50
2019-06-20T06:44:19.051Z,19.50
2019-06-20T06:46:54.138Z,19.40
2019-06-20T06:49:17.382Z,19.40
2019-06-20T06:51:46.079Z,19.40
2019-06-20T06:54:14.221Z,19.40
2019-06-20T06:56:42.637Z,19.40
2019-06-20T06:59:11.114Z,19.50
2019-06-20T07:01:39.786Z,19.60
2019-06-20T07:04:07.825Z,19.70
2019-06-20T07:06:36.325Z,19.80
2019-06-20T07:09:08.003Z,20.00
2019-06-20T07:11:36.609Z,20.10
2019-06-20T07:14:05.007Z,20.20
2019-06-20T07:16:33.290Z,20.30
2019-06-20T07:19:01.516Z,20.40
2019-06-20T07:21:29.649Z,20.50
2019-06-20T07:23:57.831Z,20.50
2019-06-20T07:26:26.281Z,20.40
2019-06-20T07:28:54.298Z,20.40
2019-06-20T07:31:23.208Z,20.50
2019-06-20T07:33:51.399Z,20.40
2019-06-20T07:36:19.444Z,20.30
2019-06-20T07:38:47.354Z,20.00
2019-06-20T07:41:15.276Z,20.00
2019-06-20T07:43:43.170Z,19.80
2019-06-20T07:46:11.090Z,19.60
2019-06-20T07:48:39.567Z,19.60
2019-06-20T07:51:07.584Z,19.60
2019-06-20T07:53:35.495Z,19.50
2019-06-20T07:56:03.931Z,19.80
2019-06-20T07:58:32.026Z,20.10
2019-06-20T08:01:00.034Z,20.30
2019-06-20T08:03:28.008Z,20.20
2019-06-20T08:05:56.069Z,20.20
2019-06-20T08:08:23.999Z,20.30
2019-06-20T08:10:52.001Z,20.40
2019-06-20T08:13:20.501Z,20.50
2019-06-20T08:15:48.616Z,20.50
2019-06-20T08:18:16.740Z,20.30
2019-06-20T08:20:44.835Z,20.00
2019-06-20T08:23:12.929Z,20.10
2019-06-20T08:25:41.005Z,20.10
2019-06-20T08:28:09.160Z,20.40
2019-06-20T08:30:37.802Z,20.90
2019-06-20T08:33:11.504Z,21.00
2019-06-20T08:35:37.244Z,21.20
2019-06-20T08:38:07.035Z,21.30
2019-06-20T08:40:39.500Z,21.50
2019-06-20T08:43:07.635Z,21.30
2019-06-20T08:45:36.732Z,21.40
2019-06-20T08:48:04.872Z,21.50
2019-06-20T08:50:33.268Z,21.70
2019-06-20T08:53:01.902Z,22.10
2019-06-20T08:55:30.135Z,22.10
2019-06-20T08:57:59.555Z,22.20
2019-06-20T09:00:30.662Z,22.40
2019-06-20T09:03:00.558Z,22.40
2019-06-20T09:05:30.713Z,22.40
2019-06-20T09:10:35.262Z,22.00
2019-06-20T09:13:03.971Z,22.00
2019-06-20T09:15:32.392Z,21.90
2019-06-20T09:18:00.764Z,21.80
2019-06-20T09:20:29.351Z,21.80
2019-06-20T09:22:58.835Z,21.80
2019-06-20T09:25:25.889Z,21.90
2019-06-20T09:27:54.422Z,22.10
2019-06-20T09:30:22.605Z,22.30
2019-06-20T09:32:52.270Z,22.60
2019-06-20T09:35:21.373Z,22.70
2019-06-20T09:37:50.857Z,22.80
2019-06-20T09:40:20.226Z,23.10
2019-06-20T09:42:48.533Z,23.10
2019-06-20T09:45:17.347Z,22.90
2019-06-20T09:47:45.251Z,22.80
2019-06-20T09:50:13.878Z,22.80
2019-06-20T09:52:41.875Z,22.70
2019-06-20T09:55:11.318Z,22.70
2019-06-20T09:57:39.709Z,22.70
2019-06-20T10:00:10.584Z,22.60
2019-06-20T10:02:39.117Z,22.50
2019-06-20T10:05:08.722Z,22.60
2019-06-20T10:07:36.826Z,22.60
2019-06-20T10:10:05.547Z,22.40
2019-06-20T10:12:33.591Z,22.40
2019-06-20T10:15:01.821Z,22.60
2019-06-20T10:17:29.918Z,22.80
2019-06-20T10:19:58.035Z,22.50
2019-06-20T10:22:25.917Z,22.40
2019-06-20T10:24:53.850Z,22.50
2019-06-20T10:27:21.986Z,22.50
2019-06-20T10:29:51.082Z,22.70
2019-06-20T10:32:19.252Z,22.60
2019-06-20T10:34:48.359Z,22.60
2019-06-20T10:37:16.486Z,22.70
2019-06-20T10:39:46.094Z,22.90
2019-06-20T10:42:14.183Z,22.90
2019-06-20T10:44:43.014Z,22.80
2019-06-20T10:47:12.167Z,22.70
2019-06-20T10:49:42.900Z,22.50
2019-06-20T10:52:11.051Z,22.60
2019-06-20T10:54:39.190Z,22.70
2019-06-20T10:57:07.098Z,23.00
2019-06-20T10:59:35.004Z,23.70
2019-06-20T11:02:03.023Z,24.20
2019-06-20T11:04:30.918Z,24.50
2019-06-20T11:06:58.952Z,24.70
2019-06-20T11:09:27.385Z,24.60
2019-06-20T11:11:55.592Z,24.50
2019-06-20T11:14:24.023Z,24.50
2019-06-20T11:16:52.284Z,24.40
2019-06-20T11:19:20.611Z,24.10
2019-06-20T11:21:49.168Z,24.10
2019-06-20T11:24:17.355Z,24.10
2019-06-20T11:26:45.986Z,24.20
2019-06-20T11:29:14.876Z,24.40
2019-06-20T11:31:46.372Z,24.30
2019-06-20T11:34:13.393Z,24.40
2019-06-20T11:36:42.435Z,24.60
2019-06-20T11:39:10.968Z,24.70
2019-06-20T11:41:39.714Z,24.70
2019-06-20T11:44:08.166Z,24.50
2019-06-20T11:46:37.013Z,24.60
2019-06-20T11:49:05.545Z,25.20
2019-06-20T11:51:34.853Z,25.20
2019-06-20T11:54:03.676Z,25.00
2019-06-20T11:56:32.176Z,25.30
2019-06-20T11:59:00.562Z,25.50
2019-06-20T12:01:32.827Z,25.30
2019-06-20T12:03:58.594Z,25.10
2019-06-20T12:06:26.745Z,25.00
2019-06-20T12:08:54.919Z,24.70
2019-06-20T12:11:23.151Z,25.00
2019-06-20T12:13:51.099Z,24.80
2019-06-20T12:16:19.606Z,24.70
2019-06-20T12:18:49.415Z,24.60
2019-06-20T12:21:17.850Z,24.60
2019-06-20T12:23:46.862Z,24.30
2019-06-20T12:26:15.320Z,24.30
2019-06-20T12:28:44.719Z,24.30
2019-06-20T12:31:19.391Z,24.30
2019-06-20T12:33:45.043Z,24.30
2019-06-20T12:36:13.387Z,24.20
2019-06-20T12:38:43.234Z,24.10
2019-06-20T12:41:11.531Z,23.70
2019-06-20T12:43:40.351Z,23.60
2019-06-20T12:46:08.438Z,23.60
2019-06-20T12:48:36.742Z,23.60
2019-06-20T12:51:05.115Z,23.60
2019-06-20T12:53:33.132Z,23.60
2019-06-20T12:56:01.389Z,23.50
2019-06-20T12:58:29.550Z,23.20
2019-06-20T13:00:57.430Z,23.20
2019-06-20T13:03:25.434Z,23.10
2019-06-20T13:05:53.934Z,23.10
2019-06-20T13:08:22.200Z,23.00
2019-06-20T13:10:50.682Z,23.00
2019-06-20T13:13:18.987Z,23.00
2019-06-20T13:15:47.473Z,23.20
2019-06-20T13:18:15.729Z,23.10
2019-06-20T13:20:44.326Z,23.20
2019-06-20T13:23:12.663Z,23.30
2019-06-20T13:25:40.974Z,23.10
2019-06-20T13:28:09.227Z,23.20
2019-06-20T13:30:38.519Z,23.20
2019-06-20T13:33:07.339Z,23.10
2019-06-20T13:35:35.534Z,23.20
2019-06-20T13:38:03.765Z,23.00
2019-06-20T13:40:31.775Z,23.00
2019-06-20T13:42:59.772Z,22.80
2019-06-20T13:45:27.821Z,22.50
2019-06-20T13:47:55.715Z,22.50
2019-06-20T13:50:25.204Z,22.30
2019-06-20T13:52:53.450Z,22.10
2019-06-20T13:55:21.558Z,21.80
2019-06-20T13:57:49.694Z,21.70
2019-06-20T14:00:18.954Z,21.50
2019-06-20T14:02:48.713Z,21.20
2019-06-20T14:05:17.250Z,21.10
2019-06-20T14:07:48.484Z,21.10
2019-06-20T14:10:15.722Z,21.00
2019-06-20T14:12:44.719Z,21.00
2019-06-20T14:15:13.065Z,21.10
2019-06-20T14:17:41.954Z,21.20
2019-06-20T14:20:12.092Z,21.20
2019-06-20T14:22:41.417Z,21.30
2019-06-20T14:25:10.193Z,21.20
2019-06-20T14:27:38.136Z,21.10
2019-06-20T14:30:07.542Z,21.20
2019-06-20T14:32:35.808Z,21.20
2019-06-20T14:35:04.048Z,21.20
2019-06-20T14:37:32.166Z,21.00
2019-06-20T14:40:00.398Z,21.10
2019-06-20T14:42:28.418Z,20.80
2019-06-20T14:44:56.333Z,20.90
2019-06-20T14:47:24.299Z,20.80
2019-06-20T14:49:52.728Z,20.70
2019-06-20T14:52:20.868Z,20.70
2019-06-20T14:54:49.851Z,20.50
2019-06-20T14:57:18.356Z,20.30
2019-06-20T14:59:47.000Z,20.30
2019-06-20T15:02:16.285Z,20.30
2019-06-20T15:04:44.971Z,20.30
2019-06-20T15:07:14.111Z,20.30
2019-06-20T15:09:42.089Z,20.30
2019-06-20T15:12:10.152Z,20.20
2019-06-20T15:14:38.150Z,20.00
2019-06-20T15:17:06.383Z,19.90
2019-06-20T15:19:34.636Z,20.00
2019-06-20T15:22:02.916Z,20.10
2019-06-20T15:24:30.831Z,20.00
2019-06-20T15:26:58.782Z,19.80
2019-06-20T15:29:26.704Z,20.10
2019-06-20T15:31:54.920Z,20.20
2019-06-20T15:34:22.889Z,20.50
2019-06-20T15:36:51.501Z,20.60
2019-06-20T15:39:19.606Z,20.60
2019-06-20T15:41:48.751Z,20.80
2019-06-20T15:44:17.543Z,20.90
2019-06-20T15:46:45.658Z,20.90
2019-06-20T15:49:16.293Z,21.10
2019-06-20T15:51:43.546Z,21.10
2019-06-20T15:54:11.471Z,21.20
2019-06-20T15:56:39.393Z,21.00
2019-06-20T15:59:07.278Z,21.20
2019-06-20T16:01:35.363Z,21.10
2019-06-20T16:04:03.579Z,21.10
2019-06-20T16:06:31.686Z,20.90
2019-06-20T16:08:59.575Z,20.90
2019-06-20T16:11:27.715Z,20.80
2019-06-20T16:13:55.755Z,20.70
2019-06-20T16:16:23.687Z,20.50
2019-06-20T16:18:51.605Z,20.20
2019-06-20T16:21:19.514Z,20.00
2019-06-20T16:23:47.563Z,20.00
2019-06-20T16:26:15.635Z,20.10
2019-06-20T16:28:44.095Z,20.00
2019-06-20T16:31:25.797Z,19.90
2019-06-20T16:33:42.039Z,19.90
2019-06-20T16:36:12.865Z,19.90
2019-06-20T16:38:40.000Z,20.00
2019-06-20T16:41:08.014Z,20.00
2019-06-20T16:43:35.931Z,20.00
2019-06-20T16:46:04.063Z,19.80
2019-06-20T16:48:32.175Z,19.90
2019-06-20T16:51:00.124Z,20.00
2019-06-20T16:53:28.199Z,20.00
2019-06-20T16:55:56.232Z,20.10
2019-06-20T16:58:24.169Z,20.20
2019-06-20T17:00:52.271Z,20.40
2019-06-20T17:03:20.530Z,20.40
2019-06-20T17:05:48.614Z,20.30
2019-06-20T17:08:16.522Z,20.30
2019-06-20T17:10:44.649Z,20.30
2019-06-20T17:13:12.894Z,20.20
2019-06-20T17:15:41.067Z,20.30
2019-06-20T17:18:08.993Z,20.20
2019-06-20T17:20:37.192Z,20.20
2019-06-20T17:23:05.291Z,20.20
2019-06-20T17:25:33.371Z,20.10
2019-06-20T17:28:01.535Z,20.20
2019-06-20T17:30:29.774Z,20.20
2019-06-20T17:32:57.884Z,20.30
2019-06-20T17:35:26.633Z,20.30
2019-06-20T17:37:54.770Z,20.30
2019-06-20T17:40:23.813Z,20.30
2019-06-20T17:42:51.926Z,20.40
2019-06-20T17:45:20.431Z,20.40
2019-06-20T17:47:48.428Z,20.40
2019-06-20T17:50:16.700Z,20.50
2019-06-20T17:52:44.891Z,20.60
2019-06-20T17:55:13.232Z,20.60
2019-06-20T17:57:41.511Z,20.60
2019-06-20T18:00:10.208Z,20.50
2019-06-20T18:02:38.556Z,20.50
2019-06-20T18:05:07.207Z,20.30
2019-06-20T18:07:35.197Z,20.30
2019-06-20T18:10:04.459Z,20.10
2019-06-20T18:12:33.046Z,20.10
2019-06-20T18:15:01.244Z,20.10
2019-06-20T18:17:29.379Z,19.80
2019-06-20T18:19:57.664Z,19.90
2019-06-20T18:22:25.568Z,19.80
2019-06-20T18:24:53.689Z,19.80
2019-06-20T18:27:21.730Z,19.50
2019-06-20T18:29:49.652Z,19.70
2019-06-20T18:32:17.995Z,19.60
2019-06-20T18:35:00.759Z,19.70
2019-06-20T18:37:30.438Z,19.70
2019-06-20T18:39:45.879Z,19.70
2019-06-20T18:42:13.891Z,19.60
2019-06-20T18:44:41.873Z,19.60
2019-06-20T18:47:10.042Z,19.50
2019-06-20T18:49:38.040Z,19.40
2019-06-20T18:52:06.189Z,19.50
2019-06-20T18:54:34.483Z,19.50
2019-06-20T18:57:02.585Z,19.40
2019-06-20T18:59:32.803Z,19.40
2019-06-20T19:02:00.967Z,19.40
2019-06-20T19:04:28.875Z,19.40
2019-06-20T19:06:56.929Z,19.50
2019-06-20T19:09:24.953Z,19.20
2019-06-20T19:11:53.171Z,19.30
2019-06-20T19:14:21.342Z,19.30
2019-06-20T19:16:49.339Z,19.30
2019-06-20T19:19:20.727Z,19.30
2019-06-20T19:21:47.395Z,19.30
2019-06-20T19:24:15.450Z,19.40
2019-06-20T19:26:43.780Z,19.50
2019-06-20T19:29:12.043Z,19.50
2019-06-20T19:31:39.959Z,19.30
2019-06-20T19:34:08.215Z,19.30
2019-06-20T19:36:36.118Z,18.90
2019-06-20T19:39:05.885Z,18.70
2019-06-20T19:41:33.917Z,18.60
2019-06-20T19:44:02.131Z,18.60
2019-06-20T19:46:30.181Z,18.80
2019-06-20T19:48:58.450Z,19.00
2019-06-20T19:51:26.747Z,19.10
2019-06-20T19:53:54.771Z,19.10
2019-06-20T19:56:22.937Z,19.10
2019-06-20T19:58:51.091Z,19.00
2019-06-20T20:01:19.221Z,19.00
2019-06-20T20:03:47.331Z,19.00
2019-06-20T20:06:15.350Z,19.00
2019-06-20T20:08:43.576Z,19.10
2019-06-20T20:11:11.702Z,19.00
2019-06-20T20:13:39.638Z,19.00
2019-06-20T20:16:08.379Z,19.00
2019-06-20T20:18:36.438Z,19.00
2019-06-20T20:21:04.477Z,19.00
2019-06-20T20:23:32.591Z,18.80
2019-06-20T20:26:00.558Z,18.70
2019-06-20T20:28:28.726Z,18.80
2019-06-20T20:30:56.714Z,18.80
2019-06-20T20:33:24.642Z,18.70
2019-06-20T20:35:53.013Z,18.90
2019-06-20T20:38:21.225Z,18.80
2019-06-20T20:40:49.345Z,18.60
2019-06-20T20:43:17.535Z,18.70
2019-06-20T20:45:45.470Z,18.80
2019-06-20T20:48:13.500Z,18.90
2019-06-20T20:50:41.670Z,18.90
2019-06-20T20:53:09.926Z,18.90
2019-06-20T20:55:38.144Z,18.80
2019-06-20T20:58:06.363Z,18.80
2019-06-20T21:00:42.295Z,18.70
2019-06-20T21:03:10.463Z,18.90
2019-06-20T21:05:50.915Z,19.00
2019-06-20T21:08:08.463Z,19.10
2019-06-20T21:10:36.813Z,19.10
2019-06-20T21:13:04.837Z,18.90
2019-06-20T21:15:33.319Z,18.80
2019-06-20T21:18:01.609Z,18.70
2019-06-20T21:20:29.683Z,18.60
2019-06-20T21:22:57.840Z,18.60
2019-06-20T21:25:25.970Z,18.50
2019-06-20T21:27:54.246Z,18.40
2019-06-20T21:30:22.990Z,18.30
2019-06-20T21:32:51.433Z,18.50
2019-06-20T21:35:21.315Z,18.50
2019-06-20T21:37:49.364Z,18.50
2019-06-20T21:40:17.915Z,18.40
2019-06-20T21:42:45.914Z,18.30
2019-06-20T21:45:14.604Z,18.30
2019-06-20T21:47:42.598Z,18.50
2019-06-20T21:50:10.901Z,18.40
2019-06-20T21:52:39.156Z,18.30
2019-06-20T21:55:07.835Z,18.30
2019-06-20T21:57:36.186Z,18.40
2019-06-20T22:00:10.589Z,18.30
2019-06-20T22:02:39.090Z,18.20
2019-06-20T22:05:09.484Z,18.30
2019-06-20T22:07:37.093Z,18.10
2019-06-20T22:10:04.950Z,18.20
2019-06-20T22:12:33.238Z,18.20
2019-06-20T22:15:01.730Z,18.20
2019-06-20T22:17:29.995Z,18.20
2019-06-20T22:19:57.886Z,18.20
2019-06-20T22:22:25.864Z,18.30
2019-06-20T22:24:54.469Z,18.30
2019-06-20T22:27:22.647Z,18.30
2019-06-20T22:29:51.259Z,18.20
2019-06-20T22:32:19.386Z,18.20
2019-06-20T22:34:50.769Z,18.10
2019-06-20T22:37:18.762Z,18.20
2019-06-20T22:39:46.959Z,18.30
2019-06-20T22:42:15.199Z,18.30
2019-06-20T22:44:43.124Z,18.30
2019-06-20T22:47:11.171Z,18.40
2019-06-20T22:49:39.286Z,18.30
2019-06-20T22:52:07.694Z,18.20
2019-06-20T22:54:35.991Z,18.20
2019-06-20T22:57:04.370Z,18.10
2019-06-20T22:59:32.788Z,18.10
2019-06-20T23:02:01.542Z,17.90
2019-06-20T23:04:29.606Z,17.80
2019-06-20T23:06:58.361Z,17.80
2019-06-20T23:09:27.382Z,17.90
2019-06-20T23:11:55.675Z,18.00
2019-06-20T23:14:23.835Z,18.00
2019-06-20T23:16:52.217Z,17.90
2019-06-20T23:19:20.464Z,17.90
2019-06-20T23:21:49.129Z,17.90
2019-06-20T23:24:17.778Z,18.00
2019-06-20T23:26:46.051Z,18.00
2019-06-20T23:29:23.558Z,17.90
2019-06-20T23:31:52.748Z,17.80
2019-06-20T23:34:21.219Z,17.90
2019-06-20T23:36:49.254Z,17.90
2019-06-20T23:39:17.782Z,17.80
2019-06-20T23:41:46.666Z,17.70
2019-06-20T23:44:14.907Z,17.60
2019-06-20T23:46:43.466Z,17.60
2019-06-20T23:49:12.187Z,17.80
2019-06-20T23:51:48.358Z,17.80
2019-06-20T23:54:19.896Z,17.70
2019-06-20T23:56:47.125Z,17.70
2019-06-20T23:59:15.087Z,17.50
